Time;durP1;ratioP1;P1;durP2;ratioP2;P2;SDS_P1;SDS_P2;PMS_P1;PMS_P2;Temp;Humidity;BMP_temperature;BMP_pressure;BME280_temperature;BME280_humidity;BME280_pressure;Samples;Min_cycle;Max_cycle;Signal;HPM_P1;HPM_P2
2022/03/13 00:02:15;;;;;;;14.80;8.63;;;3.80;32.60;;;;;;5073962;28;20374;-61
2022/03/13 00:04:43;;;;;;;17.63;7.68;;;3.80;32.60;;;;;;5073741;28;20028;-62
2022/03/13 00:07:27;;;;;;;17.50;8.23;;;3.80;32.50;;;;;;5073950;28;20029;-60
2022/03/13 00:09:53;;;;;;;17.20;8.75;;;3.90;32.40;;;;;;5074254;28;20032;-61
2022/03/13 00:12:29;;;;;;;14.68;8.10;;;3.80;32.30;;;;;;5073942;28;20027;-61
2022/03/13 00:14:56;;;;;;;14.75;7.93;;;3.90;32.40;;;;;;5073072;28;20137;-60
2022/03/13 00:17:27;;;;;;;17.35;7.88;;;3.80;32.50;;;;;;5073901;28;20052;-61
2022/03/13 00:20:05;;;;;;;20.60;8.23;;;3.80;32.60;;;;;;5074213;28;20027;-61
2022/03/13 00:22:33;;;;;;;14.90;8.10;;;3.70;32.70;;;;;;5056087;28;20142;-62
2022/03/13 00:25:00;;;;;;;18.48;8.05;;;3.70;32.80;;;;;;5053885;28;20419;-62
2022/03/13 00:27:26;;;;;;;16.05;8.35;;;3.70;32.80;;;;;;5053202;28;20128;-61
2022/03/13 00:29:52;;;;;;;20.35;8.63;;;3.60;32.70;;;;;;5053371;28;20386;-61
2022/03/13 00:32:19;;;;;;;14.80;8.35;;;3.70;32.80;;;;;;5053660;28;20029;-61
2022/03/13 00:34:44;;;;;;;17.45;8.32;;;3.70;32.80;;;;;;5035477;28;20133;-62
2022/03/13 00:37:10;;;;;;;16.95;9.07;;;3.70;32.80;;;;;;5053448;28;20108;-62
2022/03/13 00:39:39;;;;;;;15.23;7.78;;;3.70;32.70;;;;;;5053100;28;20040;-63
2022/03/13 00:42:05;;;;;;;13.75;7.70;;;3.60;32.80;;;;;;5052895;28;20115;-62
2022/03/13 00:44:31;;;;;;;14.45;7.68;;;3.60;32.80;;;;;;5033708;28;20563;-62
2022/03/13 00:46:56;;;;;;;16.65;7.75;;;3.50;32.70;;;;;;5034855;28;20103;-62
2022/03/13 00:49:22;;;;;;;17.88;8.50;;;3.50;32.80;;;;;;5049968;28;20470;-61
2022/03/13 00:51:48;;;;;;;15.15;8.15;;;3.50;32.70;;;;;;5052314;28;20262;-61
2022/03/13 00:54:13;;;;;;;14.98;8.00;;;3.50;32.60;;;;;;5052641;28;20466;-61
2022/03/13 00:56:39;;;;;;;15.52;7.80;;;3.60;32.70;;;;;;5051821;28;20406;-60
2022/03/13 00:59:05;;;;;;;20.95;8.63;;;3.60;32.70;;;;;;5035077;28;20032;-61
2022/03/13 01:01:31;;;;;;;13.57;8.15;;;3.60;32.70;;;;;;5034080;28;20017;-60
2022/03/13 01:03:56;;;;;;;16.42;8.43;;;3.50;32.70;;;;;;5052853;28;20481;-60
2022/03/13 01:06:22;;;;;;;15.25;8.07;;;3.50;32.70;;;;;;5052477;28;20029;-60
2022/03/13 01:08:50;;;;;;;15.15;8.57;;;3.40;33.40;;;;;;5018707;28;20088;-60
2022/03/13 01:11:21;;;;;;;15.38;7.35;;;3.40;32.80;;;;;;5052857;28;20033;-61
2022/03/13 01:13:47;;;;;;;15.10;7.97;;;3.50;32.70;;;;;;5051881;28;20461;-61
2022/03/13 01:16:24;;;;;;;16.48;8.45;;;3.40;32.80;;;;;;5052364;28;20354;-61
2022/03/13 01:19:00;;;;;;;15.57;8.63;;;3.50;32.70;;;;;;5051921;28;20048;-61
2022/03/13 01:21:28;;;;;;;15.38;7.82;;;3.50;32.60;;;;;;5031825;28;20043;-60
2022/03/13 01:23:59;;;;;;;14.85;8.60;;;3.50;32.50;;;;;;5071659;28;20046;-60
2022/03/13 01:26:25;;;;;;;17.50;8.02;;;3.50;32.40;;;;;;5071510;28;20111;-61
2022/03/13 01:28:53;;;;;;;22.05;8.70;;;3.50;32.20;;;;;;5072142;28;20052;-60
2022/03/13 01:31:27;;;;;;;15.85;8.90;;;3.40;32.30;;;;;;5071102;28;20029;-61
2022/03/13 01:33:54;;;;;;;13.85;7.95;;;3.40;32.30;;;;;;5072152;28;20017;-61
2022/03/13 01:36:20;;;;;;;14.38;8.57;;;3.40;32.30;;;;;;5072209;28;20021;-60
2022/03/13 01:38:46;;;;;;;16.58;8.80;;;3.50;32.20;;;;;;5071659;28;20029;-60
2022/03/13 01:41:12;;;;;;;15.43;9.20;;;3.50;32.20;;;;;;5071597;28;20334;-60
2022/03/13 01:43:38;;;;;;;15.60;8.20;;;3.50;32.10;;;;;;5070705;28;20073;-61
2022/03/13 01:46:04;;;;;;;17.55;8.30;;;3.40;32.00;;;;;;5072272;28;20017;-61
2022/03/13 01:48:50;;;;;;;15.55;8.75;;;3.40;32.00;;;;;;5071530;28;20036;-61
2022/03/13 01:51:16;;;;;;;14.13;8.05;;;3.40;32.10;;;;;;5072491;28;20070;-61
2022/03/13 01:53:41;;;;;;;14.73;8.68;;;3.50;32.10;;;;;;5071625;28;20475;-61
2022/03/13 01:56:07;;;;;;;17.88;8.38;;;3.40;31.90;;;;;;5071831;28;20024;-61
2022/03/13 01:58:33;;;;;;;15.25;8.52;;;3.50;31.90;;;;;;5071482;28;20029;-62
2022/03/13 02:00:59;;;;;;;15.70;8.65;;;3.40;31.80;;;;;;5072131;28;20449;-61
2022/03/13 02:03:26;;;;;;;17.55;8.43;;;3.40;31.90;;;;;;5071939;28;20075;-61
2022/03/13 02:05:51;;;;;;;19.90;8.85;;;3.50;31.90;;;;;;5070498;28;20028;-62
2022/03/13 02:08:19;;;;;;;14.38;8.15;;;3.40;31.70;;;;;;5071994;28;20033;-61
2022/03/13 02:10:46;;;;;;;17.83;9.18;;;3.50;31.80;;;;;;5072123;28;20025;-63
2022/03/13 02:13:18;;;;;;;14.40;8.40;;;3.50;31.60;;;;;;5070909;28;20021;-61
2022/03/13 02:15:45;;;;;;;15.10;8.82;;;3.50;31.70;;;;;;5070304;28;20024;-63
2022/03/13 02:18:10;;;;;;;14.07;7.88;;;3.50;31.70;;;;;;5071452;28;20044;-64
2022/03/13 02:20:43;;;;;;;16.55;8.80;;;3.50;31.70;;;;;;5069276;28;20457;-61
2022/03/13 02:23:19;;;;;;;15.10;8.50;;;3.40;31.70;;;;;;5052207;28;20016;-60
2022/03/13 02:25:56;;;;;;;15.85;8.80;;;3.40;31.90;;;;;;5051451;28;20504;-61
2022/03/13 02:28:27;;;;;;;15.85;8.27;;;3.40;31.90;;;;;;5051714;28;20025;-60
2022/03/13 02:30:58;;;;;;;13.63;8.20;;;3.40;31.90;;;;;;5051481;28;20116;-60
2022/03/13 02:33:24;;;;;;;17.98;8.75;;;3.30;31.90;;;;;;5051946;28;20017;-60
2022/03/13 02:35:56;;;;;;;16.33;8.68;;;3.30;31.90;;;;;;5050902;28;20031;-60
2022/03/13 02:38:24;;;;;;;15.88;8.10;;;3.30;32.00;;;;;;5033571;28;20064;-60
2022/03/13 02:40:49;;;;;;;15.43;8.48;;;3.30;32.00;;;;;;5051124;28;20027;-60
2022/03/13 02:43:16;;;;;;;16.60;8.15;;;3.20;32.10;;;;;;5034197;28;20025;-60
2022/03/13 02:45:42;;;;;;;14.35;8.55;;;3.30;32.10;;;;;;5051243;28;20017;-60
2022/03/13 02:48:09;;;;;;;13.95;8.13;;;3.30;32.00;;;;;;5033504;28;20127;-61
2022/03/13 02:50:36;;;;;;;13.95;8.10;;;3.40;31.90;;;;;;5051819;28;20021;-60
2022/03/13 02:53:03;;;;;;;15.88;8.18;;;3.30;32.00;;;;;;5051372;28;20457;-61
2022/03/13 02:55:29;;;;;;;15.93;8.18;;;3.30;32.00;;;;;;5051411;28;20025;-61
2022/03/13 02:57:55;;;;;;;17.65;7.50;;;3.40;32.00;;;;;;5050474;28;20470;-61
2022/03/13 03:00:21;;;;;;;12.90;7.72;;;3.40;32.10;;;;;;5051703;28;20036;-61
2022/03/13 03:02:48;;;;;;;18.52;9.13;;;3.30;32.20;;;;;;5051005;28;20027;-60
2022/03/13 03:05:14;;;;;;;13.65;7.80;;;3.30;32.40;;;;;;5051712;28;20021;-60
2022/03/13 03:10:25;;;;;;;15.93;8.90;;;3.30;32.60;;;;;;5055646;28;20052;-60
2022/03/13 03:12:50;;;;;;;16.55;8.73;;;3.40;32.60;;;;;;5036972;28;20017;-60
2022/03/13 03:15:19;;;;;;;14.77;8.18;;;3.40;32.80;;;;;;5055408;28;20453;-60
2022/03/13 03:17:45;;;;;;;15.38;9.02;;;3.40;33.20;;;;;;5036749;28;20025;-60
2022/03/13 03:20:11;;;;;;;16.02;8.43;;;3.40;33.60;;;;;;5055746;28;20029;-60
2022/03/13 03:22:38;;;;;;;16.17;9.00;;;3.30;33.80;;;;;;5054716;28;20045;-62
2022/03/13 03:25:04;;;;;;;15.05;9.20;;;3.20;34.00;;;;;;5055546;28;20029;-61
2022/03/13 03:27:31;;;;;;;21.25;9.55;;;3.10;34.50;;;;;;5055053;28;20098;-61
2022/03/13 03:30:00;;;;;;;15.18;8.80;;;3.10;34.50;;;;;;5037264;28;20033;-60
2022/03/13 03:32:26;;;;;;;19.38;8.85;;;3.00;34.80;;;;;;5037194;28;20020;-60
2022/03/13 03:34:52;;;;;;;16.45;8.52;;;2.90;34.80;;;;;;5055116;28;20020;-60
2022/03/13 03:37:18;;;;;;;17.58;8.98;;;2.90;34.80;;;;;;5037115;28;20031;-61
2022/03/13 03:39:43;;;;;;;16.42;9.10;;;2.90;35.00;;;;;;5054262;28;20028;-62
2022/03/13 03:42:09;;;;;;;16.80;9.02;;;2.80;35.00;;;;;;5054978;28;20730;-61
2022/03/13 03:44:35;;;;;;;14.93;8.60;;;2.90;34.90;;;;;;5055193;28;20013;-61
2022/03/13 03:47:00;;;;;;;16.63;8.85;;;2.80;35.00;;;;;;5054224;28;20120;-61
2022/03/13 03:49:26;;;;;;;16.15;9.23;;;2.70;35.30;;;;;;5054821;28;20469;-61
2022/03/13 03:51:52;;;;;;;15.00;8.40;;;2.50;35.60;;;;;;5053954;28;20365;-61
2022/03/13 03:54:19;;;;;;;17.08;9.13;;;2.40;35.90;;;;;;5036539;28;20478;-62
2022/03/13 03:56:45;;;;;;;16.15;8.80;;;2.40;36.10;;;;;;5054002;28;20032;-61
2022/03/13 03:59:11;;;;;;;19.50;9.07;;;2.40;36.10;;;;;;5054059;28;20110;-62
2022/03/13 04:01:37;;;;;;;15.52;8.68;;;2.30;36.10;;;;;;5054559;28;20067;-62
2022/03/13 04:04:07;;;;;;;15.18;8.90;;;2.30;36.40;;;;;;5053798;28;20428;-62
2022/03/13 04:06:37;;;;;;;16.60;8.50;;;2.30;36.40;;;;;;5054155;28;20374;-60
2022/03/13 04:09:03;;;;;;;18.27;9.25;;;2.30;36.40;;;;;;5053450;28;20025;-61
2022/03/13 04:11:29;;;;;;;18.13;9.13;;;2.30;36.30;;;;;;5036126;28;20032;-60
2022/03/13 04:13:55;;;;;;;14.65;8.48;;;2.30;36.20;;;;;;5053121;28;20017;-60
2022/03/13 04:16:21;;;;;;;15.18;8.75;;;2.30;36.30;;;;;;5053906;28;20079;-61
2022/03/13 04:18:47;;;;;;;18.77;8.48;;;2.30;36.40;;;;;;5052443;28;20028;-61
2022/03/13 04:21:13;;;;;;;16.13;8.73;;;2.30;36.60;;;;;;5046202;28;20083;-61
2022/03/13 04:23:39;;;;;;;15.48;9.48;;;2.20;36.60;;;;;;5074040;28;20407;-60
2022/03/13 04:26:05;;;;;;;16.92;9.07;;;2.10;36.70;;;;;;5073256;28;20020;-61
2022/03/13 04:28:32;;;;;;;16.10;8.63;;;2.20;36.80;;;;;;5073618;28;20079;-60
2022/03/13 04:30:59;;;;;;;21.20;8.55;;;2.20;36.60;;;;;;5071922;28;20354;-61
2022/03/13 04:33:29;;;;;;;17.45;8.57;;;2.20;36.60;;;;;;5073855;28;20040;-61
2022/03/13 04:35:57;;;;;;;15.88;8.88;;;2.20;36.60;;;;;;5055446;28;20046;-61
2022/03/13 04:38:24;;;;;;;14.88;8.48;;;2.20;36.50;;;;;;5073735;28;20371;-60
2022/03/13 04:40:51;;;;;;;16.48;8.60;;;2.20;36.60;;;;;;5071934;28;20036;-61
2022/03/13 04:43:17;;;;;;;18.65;9.85;;;2.10;36.50;;;;;;5073742;28;20048;-60
2022/03/13 04:45:43;;;;;;;17.42;8.75;;;2.10;36.60;;;;;;5073754;28;20044;-60
2022/03/13 04:48:09;;;;;;;18.45;9.48;;;2.10;36.70;;;;;;5072920;28;20168;-60
2022/03/13 04:50:34;;;;;;;17.38;9.38;;;2.00;36.90;;;;;;5071853;28;20363;-60
2022/03/13 04:53:00;;;;;;;17.75;8.27;;;2.00;36.90;;;;;;5072792;28;20046;-60
2022/03/13 04:55:26;;;;;;;15.65;8.45;;;2.00;36.80;;;;;;5073690;28;20017;-61
2022/03/13 04:57:51;;;;;;;16.85;9.30;;;2.10;36.70;;;;;;5054906;28;20036;-61
2022/03/13 05:00:18;;;;;;;16.45;8.80;;;2.20;36.70;;;;;;5072201;28;20021;-61
2022/03/13 05:02:43;;;;;;;16.58;8.98;;;2.20;36.70;;;;;;5073448;28;20025;-61
2022/03/13 05:05:09;;;;;;;19.08;8.90;;;2.10;36.90;;;;;;5072976;28;20017;-61
2022/03/13 05:07:38;;;;;;;16.02;8.77;;;2.20;36.90;;;;;;5072402;28;20024;-61
2022/03/13 05:10:05;;;;;;;19.95;9.25;;;2.10;36.80;;;;;;5072350;28;20017;-62
2022/03/13 05:12:32;;;;;;;13.93;8.20;;;2.10;37.10;;;;;;5071474;28;20021;-61
2022/03/13 05:14:58;;;;;;;18.15;8.30;;;2.10;37.30;;;;;;5072727;28;20021;-61
2022/03/13 05:17:24;;;;;;;17.50;9.27;;;2.10;37.30;;;;;;5071689;28;20069;-61
2022/03/13 05:19:50;;;;;;;14.35;8.63;;;2.10;37.30;;;;;;5072530;28;20028;-61
2022/03/13 05:22:16;;;;;;;20.10;9.23;;;2.10;37.30;;;;;;5057204;28;20045;-61
2022/03/13 05:24:42;;;;;;;17.77;8.82;;;2.10;37.40;;;;;;5052626;28;20472;-61
2022/03/13 05:27:08;;;;;;;15.65;9.10;;;2.10;37.40;;;;;;5052047;28;20021;-61
2022/03/13 05:29:34;;;;;;;16.05;9.13;;;2.10;37.50;;;;;;5052805;28;20028;-59
2022/03/13 05:31:59;;;;;;;16.10;8.25;;;2.00;38.40;;;;;;5034167;28;20031;-60
2022/03/13 05:34:25;;;;;;;18.55;9.20;;;2.00;37.80;;;;;;5052585;28;20440;-60
2022/03/13 05:36:51;;;;;;;20.10;9.27;;;2.00;37.90;;;;;;5051507;28;20036;-60
2022/03/13 05:39:17;;;;;;;20.10;9.30;;;2.00;37.90;;;;;;5052476;28;20029;-60
2022/03/13 05:41:44;;;;;;;18.80;9.32;;;1.90;38.00;;;;;;5052602;28;20095;-60
2022/03/13 05:44:12;;;;;;;22.35;9.18;;;1.90;38.20;;;;;;5051949;28;20517;-61
2022/03/13 05:46:38;;;;;;;16.67;9.05;;;2.00;38.20;;;;;;5052168;28;20059;-60
2022/03/13 05:49:04;;;;;;;15.80;9.48;;;2.00;38.30;;;;;;5051942;28;20028;-61
2022/03/13 05:51:36;;;;;;;16.63;9.48;;;2.00;38.10;;;;;;5052109;28;20388;-61
2022/03/13 05:54:05;;;;;;;14.80;9.27;;;2.10;38.10;;;;;;5051857;28;20044;-60
2022/03/13 05:56:30;;;;;;;17.60;9.27;;;2.10;37.90;;;;;;5034191;28;20061;-61
2022/03/13 05:58:56;;;;;;;15.80;8.70;;;2.00;37.90;;;;;;5034098;28;20126;-61
2022/03/13 06:01:22;;;;;;;14.57;8.75;;;2.10;37.70;;;;;;5034415;28;20021;-61
2022/03/13 06:03:48;;;;;;;16.60;8.50;;;2.10;37.80;;;;;;5052047;28;20112;-62
2022/03/13 06:06:14;;;;;;;17.77;9.38;;;2.10;37.70;;;;;;5051173;28;20096;-61
2022/03/13 06:08:41;;;;;;;20.60;8.63;;;2.10;38.20;;;;;;5051335;28;20025;-61
2022/03/13 06:11:08;;;;;;;17.40;9.50;;;2.20;37.50;;;;;;5050034;28;20119;-61
2022/03/13 06:13:34;;;;;;;16.38;8.82;;;2.30;37.40;;;;;;5032854;28;20474;-61
2022/03/13 06:16:00;;;;;;;19.23;8.68;;;2.40;37.20;;;;;;5032633;28;20031;-62
2022/03/13 06:18:31;;;;;;;17.33;9.40;;;2.40;37.10;;;;;;5033352;28;20143;-62
2022/03/13 06:20:57;;;;;;;16.05;8.85;;;2.40;37.20;;;;;;5052283;28;20098;-61
2022/03/13 06:23:24;;;;;;;16.10;9.30;;;2.60;37.00;;;;;;5050112;28;20082;-63
2022/03/13 06:25:50;;;;;;;16.50;9.00;;;2.70;36.70;;;;;;5049894;28;20029;-61
2022/03/13 06:28:16;;;;;;;19.75;10.02;;;2.80;36.60;;;;;;5050269;28;20588;-61
2022/03/13 06:30:42;;;;;;;17.73;8.85;;;2.80;36.40;;;;;;5049734;28;20378;-64
2022/03/13 06:33:08;;;;;;;17.40;9.35;;;2.80;36.20;;;;;;5050377;28;20048;-61
2022/03/13 06:35:34;;;;;;;16.50;9.25;;;2.90;36.20;;;;;;5050847;28;20040;-62
2022/03/13 06:37:59;;;;;;;14.57;8.93;;;2.80;36.00;;;;;;5049675;28;20043;-60
2022/03/13 06:40:26;;;;;;;14.18;8.60;;;2.90;36.00;;;;;;5050421;28;20029;-62
2022/03/13 06:42:54;;;;;;;19.98;9.52;;;3.00;35.90;;;;;;5031909;28;20021;-61
2022/03/13 06:45:20;;;;;;;15.52;9.43;;;3.20;35.70;;;;;;5032968;28;20028;-64
2022/03/13 06:47:49;;;;;;;16.77;9.30;;;3.20;35.30;;;;;;5049670;28;20115;-59
2022/03/13 06:50:18;;;;;;;15.05;8.73;;;3.10;35.40;;;;;;5051647;28;20028;-61
2022/03/13 06:52:45;;;;;;;17.60;9.63;;;3.20;35.50;;;;;;5032189;28;20239;-60
2022/03/13 06:55:14;;;;;;;15.35;9.05;;;3.30;35.40;;;;;;5033320;28;20036;-61
2022/03/13 06:57:43;;;;;;;16.40;9.02;;;3.40;35.30;;;;;;5050825;28;20036;-64
2022/03/13 07:00:11;;;;;;;16.05;9.77;;;3.40;34.90;;;;;;5050972;28;20067;-61
2022/03/13 07:02:37;;;;;;;18.85;9.48;;;3.50;34.90;;;;;;5050876;28;20099;-60
2022/03/13 07:05:03;;;;;;;15.93;9.38;;;3.40;34.90;;;;;;5032695;28;20021;-61
2022/03/13 07:07:28;;;;;;;17.00;9.57;;;3.50;35.00;;;;;;5050051;28;20021;-61
2022/03/13 07:09:57;;;;;;;18.60;9.25;;;3.60;34.90;;;;;;5032590;28;20040;-61
2022/03/13 07:12:23;;;;;;;23.77;10.02;;;3.70;34.80;;;;;;5050668;28;20025;-62
2022/03/13 07:14:50;;;;;;;16.83;11.00;;;4.00;34.90;;;;;;5032107;28;20029;-61
2022/03/13 07:17:17;;;;;;;15.93;12.02;;;6.50;33.50;;;;;;5033092;28;20078;-61
2022/03/13 07:19:44;;;;;;;19.30;12.40;;;9.90;31.30;;;;;;5050337;28;20099;-61
2022/03/13 07:22:11;;;;;;;18.70;11.98;;;12.40;27.00;;;;;;5050192;28;20356;-62
2022/03/13 07:24:37;;;;;;;17.23;12.05;;;14.20;24.80;;;;;;5032500;28;20025;-61
2022/03/13 07:27:03;;;;;;;16.05;12.60;;;15.80;24.60;;;;;;5049762;28;20109;-61
2022/03/13 07:29:29;;;;;;;17.17;12.15;;;17.40;23.80;;;;;;5050334;28;20060;-62
2022/03/13 07:31:56;;;;;;;16.02;11.75;;;19.30;22.10;;;;;;5049901;28;20112;-62
2022/03/13 07:34:23;;;;;;;14.02;11.75;;;20.50;20.70;;;;;;5050393;28;20113;-64
2022/03/13 07:36:51;;;;;;;13.43;11.80;;;21.60;20.80;;;;;;5049562;28;20498;-62
2022/03/13 07:39:21;;;;;;;13.77;11.45;;;22.30;19.70;;;;;;5050729;28;20025;-62
2022/03/13 07:41:47;;;;;;;14.73;11.27;;;23.00;19.50;;;;;;5032129;28;20100;-62
2022/03/13 07:44:13;;;;;;;13.13;11.65;;;24.00;18.50;;;;;;5032540;28;20036;-62
2022/03/13 07:46:57;;;;;;;14.88;12.38;;;23.90;18.40;;;;;;5032124;28;20020;-62
2022/03/13 07:49:23;;;;;;;14.85;11.85;;;24.20;18.10;;;;;;5050199;28;20025;-63
2022/03/13 07:51:49;;;;;;;14.07;11.18;;;24.70;18.20;;;;;;5049711;28;20036;-61
2022/03/13 07:54:16;;;;;;;15.45;11.88;;;24.80;17.70;;;;;;5033942;28;20362;-62
2022/03/13 07:57:00;;;;;;;13.38;11.85;;;25.40;18.00;;;;;;5053432;28;20112;-62
2022/03/13 07:59:26;;;;;;;14.55;11.68;;;26.30;18.00;;;;;;5053326;28;20497;-62
2022/03/13 08:01:52;;;;;;;15.63;12.32;;;27.50;17.70;;;;;;5035042;28;20029;-62
2022/03/13 08:04:19;;;;;;;15.05;11.75;;;28.50;17.40;;;;;;5053770;28;20025;-61
2022/03/13 08:06:44;;;;;;;13.50;11.27;;;29.00;17.00;;;;;;5034118;28;20025;-61
2022/03/13 08:09:10;;;;;;;13.73;11.60;;;29.00;17.10;;;;;;5033754;28;20033;-62
2022/03/13 08:11:38;;;;;;;15.55;11.38;;;28.90;16.70;;;;;;5052599;28;20385;-62
2022/03/13 08:14:05;;;;;;;13.90;11.23;;;28.40;16.70;;;;;;5052621;28;20043;-62
2022/03/13 08:16:30;;;;;;;14.18;11.23;;;28.30;16.70;;;;;;5052265;28;20392;-62
2022/03/13 08:18:57;;;;;;;11.68;10.40;;;28.20;16.60;;;;;;5035226;28;20115;-60
2022/03/13 08:21:22;;;;;;;17.55;10.80;;;28.00;16.10;;;;;;5053002;28;20428;-62
2022/03/13 08:23:48;;;;;;;13.70;11.13;;;27.00;16.00;;;;;;5052515;28;20071;-61
2022/03/13 08:26:14;;;;;;;18.17;10.73;;;25.90;16.50;;;;;;5052911;28;20028;-61
2022/03/13 08:28:43;;;;;;;15.95;11.20;;;25.60;16.60;;;;;;5053419;28;20037;-61
2022/03/13 08:31:09;;;;;;;13.07;10.45;;;25.70;16.70;;;;;;5051283;28;20044;-62
2022/03/13 08:33:35;;;;;;;14.40;10.90;;;25.90;16.70;;;;;;5051293;28;20028;-62
2022/03/13 08:36:01;;;;;;;12.90;10.73;;;24.60;16.40;;;;;;5051011;28;20056;-63
2022/03/13 08:38:28;;;;;;;14.82;9.93;;;22.20;17.00;;;;;;5050343;28;20159;-62
2022/03/13 08:40:54;;;;;;;14.15;9.55;;;19.60;18.10;;;;;;5051977;28;20032;-60
2022/03/13 08:43:20;;;;;;;12.75;9.18;;;17.30;19.40;;;;;;5053004;28;20487;-62
2022/03/13 08:45:46;;;;;;;13.40;9.63;;;15.50;20.50;;;;;;5052902;28;20032;-60
2022/03/13 08:48:13;;;;;;;14.00;10.25;;;14.20;21.50;;;;;;5051525;28;20189;-61
2022/03/13 08:50:39;;;;;;;14.23;9.82;;;13.50;22.10;;;;;;5034590;28;20040;-61
2022/03/13 08:53:05;;;;;;;17.05;9.88;;;12.70;23.20;;;;;;5034264;28;20032;-60
2022/03/13 08:55:31;;;;;;;17.15;10.90;;;11.90;23.30;;;;;;5050788;28;20021;-59
2022/03/13 08:57:57;;;;;;;22.73;11.25;;;11.30;23.80;;;;;;5050861;28;20104;-60
2022/03/13 09:00:24;;;;;;;17.23;11.10;;;11.10;24.30;;;;;;5033390;28;20074;-61
2022/03/13 09:02:50;;;;;;;13.38;9.05;;;10.80;24.60;;;;;;5034259;28;20033;-61
2022/03/13 09:05:16;;;;;;;16.80;9.68;;;10.40;24.90;;;;;;5052395;28;20029;-62
2022/03/13 09:07:42;;;;;;;14.57;9.13;;;10.10;25.40;;;;;;5050299;28;20025;-63
2022/03/13 09:10:08;;;;;;;14.15;9.68;;;9.80;25.60;;;;;;5033344;28;20116;-61
2022/03/13 09:12:35;;;;;;;16.23;10.13;;;9.50;25.90;;;;;;5034543;28;20055;-60
2022/03/13 09:15:03;;;;;;;15.10;9.45;;;9.40;26.20;;;;;;5050639;28;20400;-62
2022/03/13 09:17:29;;;;;;;16.08;10.07;;;9.30;26.70;;;;;;5034068;28;20051;-61
2022/03/13 09:19:56;;;;;;;15.25;9.73;;;9.30;26.20;;;;;;5051642;28;20521;-60
2022/03/13 09:22:25;;;;;;;14.73;9.75;;;9.50;26.10;;;;;;5058634;28;20044;-60
2022/03/13 09:24:51;;;;;;;16.20;9.10;;;9.40;26.10;;;;;;5070508;28;20032;-62
2022/03/13 09:27:17;;;;;;;14.00;9.18;;;9.30;26.30;;;;;;5071793;28;20017;-61
2022/03/13 09:29:43;;;;;;;13.23;9.32;;;9.10;26.50;;;;;;5072033;28;20056;-61
2022/03/13 09:32:09;;;;;;;21.77;9.43;;;9.00;26.60;;;;;;5072237;28;20040;-60
2022/03/13 09:34:35;;;;;;;19.50;9.90;;;9.00;26.80;;;;;;5069478;28;20028;-61
2022/03/13 09:37:00;;;;;;;17.55;9.50;;;8.80;26.80;;;;;;5069560;28;20060;-61
2022/03/13 09:39:26;;;;;;;12.60;8.85;;;8.80;26.60;;;;;;5072377;28;20516;-61
2022/03/13 09:41:52;;;;;;;13.27;9.00;;;8.80;26.70;;;;;;5071483;28;20029;-61
2022/03/13 09:44:19;;;;;;;12.68;9.45;;;8.80;26.50;;;;;;5071582;28;20029;-61
2022/03/13 09:46:45;;;;;;;17.30;9.90;;;8.90;26.60;;;;;;5068828;28;20029;-60
2022/03/13 09:49:11;;;;;;;16.50;9.55;;;9.00;26.60;;;;;;5070128;28;20118;-60
2022/03/13 09:51:36;;;;;;;12.98;9.18;;;9.10;26.20;;;;;;5069776;28;20377;-60
2022/03/13 09:54:03;;;;;;;13.75;8.68;;;9.00;26.10;;;;;;5069265;28;20032;-60
2022/03/13 09:56:29;;;;;;;17.38;8.90;;;9.00;26.10;;;;;;5071741;28;20032;-60
2022/03/13 09:58:55;;;;;;;13.85;9.00;;;9.00;26.30;;;;;;5069695;28;20140;-60
2022/03/13 10:01:21;;;;;;;14.40;9.07;;;9.10;26.30;;;;;;5071393;28;20544;-60
2022/03/13 10:03:47;;;;;;;16.15;9.52;;;9.30;26.40;;;;;;5070910;28;20059;-60
2022/03/13 10:06:13;;;;;;;17.42;8.50;;;9.30;26.40;;;;;;5069287;28;20462;-60
2022/03/13 10:08:39;;;;;;;12.80;8.85;;;9.30;26.50;;;;;;5071405;28;20032;-63
2022/03/13 10:11:06;;;;;;;15.75;7.95;;;9.10;26.60;;;;;;5071203;28;20059;-60
2022/03/13 10:13:43;;;;;;;15.48;7.88;;;9.20;26.50;;;;;;5070819;28;20025;-61
2022/03/13 10:16:20;;;;;;;16.25;8.90;;;9.20;26.10;;;;;;5052888;28;20362;-61
2022/03/13 10:18:46;;;;;;;14.88;8.35;;;9.10;26.10;;;;;;5071851;28;20032;-60
2022/03/13 10:21:14;;;;;;;12.80;8.23;;;9.00;26.10;;;;;;5070045;28;20046;-60
2022/03/13 10:23:43;;;;;;;13.50;8.15;;;9.10;25.80;;;;;;5072011;28;20074;-59
2022/03/13 10:26:09;;;;;;;13.82;8.32;;;9.10;25.80;;;;;;5069369;28;20025;-60
2022/03/13 10:28:40;;;;;;;12.40;7.72;;;9.20;25.50;;;;;;5069855;28;20119;-62
2022/03/13 10:31:08;;;;;;;11.60;8.07;;;9.30;25.20;;;;;;5071302;28;20382;-61
2022/03/13 10:33:42;;;;;;;14.60;8.88;;;9.30;25.10;;;;;;5071923;28;20070;-61
2022/03/13 10:36:09;;;;;;;17.63;8.75;;;9.30;25.20;;;;;;5069418;28;20477;-63
2022/03/13 10:38:35;;;;;;;13.65;8.60;;;9.40;25.20;;;;;;5071368;28;20103;-62
2022/03/13 10:41:05;;;;;;;12.45;8.50;;;9.50;25.20;;;;;;5069670;28;20094;-62
2022/03/13 10:43:35;;;;;;;15.48;8.57;;;9.60;25.00;;;;;;5071563;28;20020;-61
2022/03/13 10:46:01;;;;;;;17.17;8.90;;;9.70;24.90;;;;;;5070895;28;20028;-62
2022/03/13 10:48:28;;;;;;;14.85;9.50;;;9.60;24.70;;;;;;5069530;28;20029;-60
2022/03/13 10:51:14;;;;;;;14.80;8.73;;;9.70;24.80;;;;;;5069026;28;20132;-62
2022/03/13 10:53:40;;;;;;;14.18;8.45;;;9.90;24.70;;;;;;5070004;28;20032;-61
2022/03/13 10:56:11;;;;;;;16.77;8.80;;;9.80;24.60;;;;;;5070722;28;20029;-61
2022/03/13 10:58:39;;;;;;;14.50;8.45;;;9.70;24.60;;;;;;5071439;28;20059;-60
2022/03/13 11:01:13;;;;;;;16.58;9.13;;;9.70;24.80;;;;;;5069632;28;20047;-60
2022/03/13 11:04:22;;;;;;;13.60;8.60;;;9.80;24.70;;;;;;5070114;28;20020;-61
2022/03/13 11:06:47;;;;;;;15.32;8.13;;;9.90;24.50;;;;;;4989291;28;20501;-61
2022/03/13 11:09:13;;;;;;;13.15;8.55;;;10.10;24.50;;;;;;4989239;28;20041;-60
2022/03/13 11:11:41;;;;;;;13.20;8.40;;;10.20;24.50;;;;;;4989746;28;20547;-61
2022/03/13 11:14:08;;;;;;;12.85;8.70;;;10.30;24.20;;;;;;4989422;28;20030;-62
2022/03/13 11:16:33;;;;;;;11.07;7.97;;;10.40;24.20;;;;;;4989590;28;20030;-61
2022/03/13 11:19:08;;;;;;;12.75;7.82;;;10.30;23.90;;;;;;4988332;28;20049;-59
2022/03/13 11:21:34;;;;;;;13.27;8.82;;;10.40;24.10;;;;;;4973059;28;20181;-60
2022/03/13 11:24:03;;;;;;;11.38;8.32;;;10.40;24.20;;;;;;4988757;28;20476;-61
2022/03/13 11:26:30;;;;;;;14.57;8.02;;;10.50;24.20;;;;;;4988855;28;20387;-61
2022/03/13 11:28:58;;;;;;;12.45;8.30;;;10.50;24.20;;;;;;4991859;28;20044;-61
2022/03/13 11:31:33;;;;;;;15.60;8.63;;;10.50;24.20;;;;;;4992877;28;20196;-61
2022/03/13 11:34:21;;;;;;;14.80;7.97;;;10.70;24.30;;;;;;4992224;28;20041;-60
2022/03/13 11:36:51;;;;;;;16.52;8.00;;;10.70;24.20;;;;;;5010274;28;20079;-61
2022/03/13 11:39:35;;;;;;;11.95;7.93;;;10.80;24.20;;;;;;5073986;28;20020;-60
2022/03/13 11:42:03;;;;;;;17.33;8.70;;;10.90;24.10;;;;;;5073672;28;20096;-61
2022/03/13 11:44:30;;;;;;;13.80;8.85;;;11.00;24.10;;;;;;5074123;28;20033;-61
2022/03/13 11:46:58;;;;;;;12.45;8.68;;;11.20;24.00;;;;;;5073728;28;20025;-65
2022/03/13 11:49:30;;;;;;;12.95;8.05;;;11.20;23.70;;;;;;5073744;28;20032;-61
2022/03/13 11:52:10;;;;;;;13.80;8.45;;;11.20;23.50;;;;;;5074049;28;20086;-59
2022/03/13 11:54:49;;;;;;;14.13;8.82;;;11.30;23.70;;;;;;5074361;28;20024;-61
2022/03/13 11:57:17;;;;;;;13.93;8.02;;;11.30;23.90;;;;;;5073254;28;20021;-62
2022/03/13 11:59:48;;;;;;;15.07;8.63;;;11.40;23.80;;;;;;5072099;28;20048;-61
2022/03/13 12:02:40;;;;;;;13.48;8.32;;;11.40;23.60;;;;;;5073567;28;20029;-60
2022/03/13 12:05:24;;;;;;;12.40;8.15;;;11.40;23.20;;;;;;5072089;28;20094;-60
2022/03/13 12:08:06;;;;;;;12.18;8.32;;;11.50;23.40;;;;;;5073137;28;20477;-61
2022/03/13 12:10:52;;;;;;;12.32;8.77;;;11.70;23.50;;;;;;5072462;28;20032;-61
2022/03/13 12:13:20;;;;;;;11.90;8.50;;;11.70;23.40;;;;;;5072980;28;20039;-62
2022/03/13 12:15:47;;;;;;;14.82;8.55;;;11.60;23.50;;;;;;5073864;28;20020;-61
2022/03/13 12:18:17;;;;;;;12.98;8.05;;;11.70;23.60;;;;;;5073331;28;20033;-60
2022/03/13 12:20:47;;;;;;;13.05;8.23;;;11.80;23.30;;;;;;5073099;28;20105;-59
2022/03/13 12:23:27;;;;;;;13.65;8.90;;;11.80;23.40;;;;;;5052603;28;20036;-65
2022/03/13 12:26:11;;;;;;;12.43;8.55;;;11.90;23.40;;;;;;5050417;28;20025;-61
2022/03/13 12:28:37;;;;;;;;;;;12.00;23.50;;;;;;5052840;28;20033;-61
2022/03/13 12:31:03;;;;;;;13.32;8.70;;;12.00;23.60;;;;;;5052078;28;19966;-61
2022/03/13 12:33:31;;;;;;;15.32;8.90;;;11.90;23.80;;;;;;5052923;28;20025;-61
2022/03/13 12:36:02;;;;;;;14.45;9.27;;;11.90;24.00;;;;;;5035115;28;20033;-61
2022/03/13 12:38:32;;;;;;;19.90;9.15;;;11.90;24.40;;;;;;5052888;28;20061;-61
2022/03/13 12:41:01;;;;;;;13.15;8.55;;;12.10;24.00;;;;;;5052331;28;20104;-65
2022/03/13 12:43:50;;;;;;;15.48;8.73;;;12.00;23.80;;;;;;5052601;28;20021;-60
2022/03/13 12:46:18;;;;;;;11.90;8.95;;;12.10;23.60;;;;;;5034000;28;20060;-60
2022/03/13 12:49:16;;;;;;;11.50;8.18;;;12.30;23.60;;;;;;5052743;28;20057;-61
2022/03/13 12:51:47;;;;;;;11.93;8.27;;;12.80;22.90;;;;;;5033452;28;20044;-60